sensor_id;sensor_type;location;lat;lon;timestamp;pressure;altitude;pressure_sealevel;temperature;humidity
58239;BME280;44037;55.638;37.356;2023-04-25T00:00:07;98942.28;;;12.18;42.87
58239;BME280;44037;55.638;37.356;2023-04-25T00:02:35;98941.44;;;12.14;43.57
58239;BME280;44037;55.638;37.356;2023-04-25T00:05:02;98940.63;;;12.11;43.58
58239;BME280;44037;55.638;37.356;2023-04-25T00:07:31;98947.56;;;12.07;43.00
58239;BME280;44037;55.638;37.356;2023-04-25T00:09:59;98945.84;;;12.06;43.78
58239;BME280;44037;55.638;37.356;2023-04-25T00:12:30;98945.00;;;12.04;43.73
58239;BME280;44037;55.638;37.356;2023-04-25T00:14:57;98951.94;;;12.02;43.84
58239;BME280;44037;55.638;37.356;2023-04-25T00:17:25;98950.22;;;12.00;44.32
58239;BME280;44037;55.638;37.356;2023-04-25T00:19:52;98948.50;;;11.98;44.50
58239;BME280;44037;55.638;37.356;2023-04-25T00:22:20;98941.56;;;11.96;43.76
58239;BME280;44037;55.638;37.356;2023-04-25T00:24:47;98951.97;;;11.93;44.36
58239;BME280;44037;55.638;37.356;2023-04-25T00:27:16;98946.78;;;11.91;44.74
58239;BME280;44037;55.638;37.356;2023-04-25T00:29:43;98942.47;;;11.89;45.03
58239;BME280;44037;55.638;37.356;2023-04-25T00:32:10;98952.88;;;11.87;44.98
58239;BME280;44037;55.638;37.356;2023-04-25T00:34:37;98949.44;;;11.83;45.16
58239;BME280;44037;55.638;37.356;2023-04-25T00:37:05;98954.63;;;11.83;45.18
58239;BME280;44037;55.638;37.356;2023-04-25T00:39:32;98949.44;;;11.83;45.36
58239;BME280;44037;55.638;37.356;2023-04-25T00:42:00;98955.47;;;11.86;45.98
58239;BME280;44037;55.638;37.356;2023-04-25T00:44:30;98964.97;;;11.90;46.15
58239;BME280;44037;55.638;37.356;2023-04-25T00:46:58;98960.63;;;11.92;45.63
58239;BME280;44037;55.638;37.356;2023-04-25T00:49:25;98967.53;;;11.96;46.15
58239;BME280;44037;55.638;37.356;2023-04-25T00:51:52;98953.69;;;11.95;46.10
58239;BME280;44037;55.638;37.356;2023-04-25T00:54:20;98958.88;;;11.97;45.77
58239;BME280;44037;55.638;37.356;2023-04-25T00:56:47;98960.59;;;11.98;45.83
58239;BME280;44037;55.638;37.356;2023-04-25T00:59:15;98953.69;;;11.98;46.33
58239;BME280;44037;55.638;37.356;2023-04-25T01:01:44;98957.13;;;11.99;46.85
58239;BME280;44037;55.638;37.356;2023-04-25T01:04:12;98957.13;;;11.99;46.95
58239;BME280;44037;55.638;37.356;2023-04-25T01:06:40;98964.06;;;12.02;46.51
58239;BME280;44037;55.638;37.356;2023-04-25T01:09:07;98964.88;;;12.04;46.33
58239;BME280;44037;55.638;37.356;2023-04-25T01:11:35;98960.53;;;12.06;47.16
58239;BME280;44037;55.638;37.356;2023-04-25T01:14:02;98954.50;;;12.08;46.72
58239;BME280;44037;55.638;37.356;2023-04-25T01:16:29;98957.91;;;12.12;46.80
58239;BME280;44037;55.638;37.356;2023-04-25T01:18:59;98954.44;;;12.14;46.74
58239;BME280;44037;55.638;37.356;2023-04-25T01:21:27;98957.03;;;12.14;46.99
58239;BME280;44037;55.638;37.356;2023-04-25T01:23:56;98952.69;;;12.17;46.84
58239;BME280;44037;55.638;37.356;2023-04-25T01:26:24;98945.75;;;12.19;47.06
58239;BME280;44037;55.638;37.356;2023-04-25T01:28:52;98949.19;;;12.19;47.03
58239;BME280;44037;55.638;37.356;2023-04-25T01:31:19;98951.81;;;12.18;46.61
58239;BME280;44037;55.638;37.356;2023-04-25T01:33:47;98956.13;;;12.19;46.74
58239;BME280;44037;55.638;37.356;2023-04-25T01:36:15;98950.06;;;12.20;46.64
58239;BME280;44037;55.638;37.356;2023-04-25T01:38:44;98948.31;;;12.22;47.47
58239;BME280;44037;55.638;37.356;2023-04-25T01:41:13;98943.94;;;12.24;47.73
58239;BME280;44037;55.638;37.356;2023-04-25T01:43:40;98943.09;;;12.26;47.47
58239;BME280;44037;55.638;37.356;2023-04-25T01:46:08;98937.88;;;12.28;47.61
58239;BME280;44037;55.638;37.356;2023-04-25T01:48:35;98944.75;;;12.31;47.67
58239;BME280;44037;55.638;37.356;2023-04-25T01:51:02;98936.91;;;12.35;47.34
58239;BME280;44037;55.638;37.356;2023-04-25T01:53:30;98941.22;;;12.39;47.06
58239;BME280;44037;55.638;37.356;2023-04-25T01:55:58;98942.06;;;12.44;46.95
58239;BME280;44037;55.638;37.356;2023-04-25T01:58:26;98942.00;;;12.48;47.08
58239;BME280;44037;55.638;37.356;2023-04-25T02:00:53;98937.63;;;12.53;47.11
58239;BME280;44037;55.638;37.356;2023-04-25T02:03:20;98935.84;;;12.56;47.31
58239;BME280;44037;55.638;37.356;2023-04-25T02:05:47;98934.09;;;12.60;46.61
58239;BME280;44037;55.638;37.356;2023-04-25T02:08:16;98938.38;;;12.64;46.86
58239;BME280;44037;55.638;37.356;2023-04-25T02:10:44;98934.88;;;12.68;46.35
58239;BME280;44037;55.638;37.356;2023-04-25T02:13:13;98937.41;;;12.74;47.46
58239;BME280;44037;55.638;37.356;2023-04-25T02:15:40;98930.41;;;12.80;46.62
58239;BME280;44037;55.638;37.356;2023-04-25T02:18:27;98925.97;;;12.91;46.61
58239;BME280;44037;55.638;37.356;2023-04-25T02:20:55;98931.91;;;12.99;47.08
58239;BME280;44037;55.638;37.356;2023-04-25T02:23:22;98921.41;;;13.07;46.87
58239;BME280;44037;55.638;37.356;2023-04-25T02:25:49;98923.94;;;13.16;46.53
58239;BME280;44037;55.638;37.356;2023-04-25T02:28:18;98922.09;;;13.23;46.62
58239;BME280;44037;55.638;37.356;2023-04-25T02:30:45;98919.41;;;13.29;46.99
58239;BME280;44037;55.638;37.356;2023-04-25T02:33:12;98915.81;;;13.36;46.64
58239;BME280;44037;55.638;37.356;2023-04-25T02:35:42;98920.00;;;13.51;46.67
58239;BME280;44037;55.638;37.356;2023-04-25T02:38:09;98920.72;;;13.61;46.14
58239;BME280;44037;55.638;37.356;2023-04-25T02:40:37;98926.69;;;13.68;45.99
58239;BME280;44037;55.638;37.356;2023-04-25T02:43:04;98924.94;;;13.70;46.49
58239;BME280;44037;55.638;37.356;2023-04-25T02:45:32;98931.81;;;13.74;46.04
58239;BME280;44037;55.638;37.356;2023-04-25T02:47:59;98922.22;;;13.78;45.75
58239;BME280;44037;55.638;37.356;2023-04-25T02:50:27;98925.63;;;13.83;46.29
58239;BME280;44037;55.638;37.356;2023-04-25T02:52:54;98929.00;;;13.88;46.16
58239;BME280;44037;55.638;37.356;2023-04-25T02:55:21;98929.84;;;13.90;45.93
58239;BME280;44037;55.638;37.356;2023-04-25T02:57:49;98932.41;;;13.93;45.64
58239;BME280;44037;55.638;37.356;2023-04-25T03:00:16;98932.31;;;13.98;45.52
58239;BME280;44037;55.638;37.356;2023-04-25T03:02:44;98931.31;;;14.07;44.95
58239;BME280;44037;55.638;37.356;2023-04-25T03:05:12;98927.66;;;14.17;45.09
58239;BME280;44037;55.638;37.356;2023-04-25T03:07:39;98925.66;;;14.33;45.20
58239;BME280;44037;55.638;37.356;2023-04-25T03:10:07;98919.31;;;14.48;44.55
58239;BME280;44037;55.638;37.356;2023-04-25T03:12:35;98923.34;;;14.65;44.72
58239;BME280;44037;55.638;37.356;2023-04-25T03:15:02;98922.19;;;14.81;44.40
58239;BME280;44037;55.638;37.356;2023-04-25T03:17:32;98920.13;;;14.99;44.44
58239;BME280;44037;55.638;37.356;2023-04-25T03:20:00;98926.72;;;15.15;44.34
58239;BME280;44037;55.638;37.356;2023-04-25T03:22:30;98910.69;;;15.32;43.86
58239;BME280;44037;55.638;37.356;2023-04-25T03:24:57;98924.31;;;15.47;43.79
58239;BME280;44037;55.638;37.356;2023-04-25T03:27:24;98914.41;;;15.61;43.46
58239;BME280;44037;55.638;37.356;2023-04-25T03:29:52;98920.22;;;15.74;43.34
58239;BME280;44037;55.638;37.356;2023-04-25T03:32:19;98921.69;;;15.88;42.96
58239;BME280;44037;55.638;37.356;2023-04-25T03:34:46;98925.81;;;15.96;42.79
58239;BME280;44037;55.638;37.356;2023-04-25T03:37:15;98923.00;;;16.04;42.58
58239;BME280;44037;55.638;37.356;2023-04-25T03:39:42;98927.94;;;16.17;42.58
58239;BME280;44037;55.638;37.356;2023-04-25T03:42:10;98921.56;;;16.27;42.13
58239;BME280;44037;55.638;37.356;2023-04-25T03:44:37;98923.59;;;16.16;42.32
58239;BME280;44037;55.638;37.356;2023-04-25T03:47:04;98925.09;;;15.90;42.95
58239;BME280;44037;55.638;37.356;2023-04-25T03:49:32;98921.25;;;15.67;43.42
58239;BME280;44037;55.638;37.356;2023-04-25T03:51:59;98923.41;;;15.49;43.99
58239;BME280;44037;55.638;37.356;2023-04-25T03:54:28;98920.25;;;15.35;44.06
58239;BME280;44037;55.638;37.356;2023-04-25T03:56:55;98923.06;;;15.24;44.40
58239;BME280;44037;55.638;37.356;2023-04-25T03:59:22;98921.66;;;15.09;44.99
58239;BME280;44037;55.638;37.356;2023-04-25T04:01:50;98927.13;;;14.95;45.02
58239;BME280;44037;55.638;37.356;2023-04-25T04:04:18;98915.16;;;14.85;46.04
58239;BME280;44037;55.638;37.356;2023-04-25T04:06:45;98916.84;;;14.87;46.78
58239;BME280;44037;55.638;37.356;2023-04-25T04:09:12;98917.53;;;14.97;46.57
58239;BME280;44037;55.638;37.356;2023-04-25T04:11:41;98914.81;;;15.02;46.27
58239;BME280;44037;55.638;37.356;2023-04-25T04:14:08;98918.41;;;14.98;46.25
58239;BME280;44037;55.638;37.356;2023-04-25T04:16:35;98913.25;;;14.95;46.50
58239;BME280;44037;55.638;37.356;2023-04-25T04:19:03;98912.47;;;14.91;46.38
58239;BME280;44037;55.638;37.356;2023-04-25T04:21:30;98919.56;;;14.83;46.36
58239;BME280;44037;55.638;37.356;2023-04-25T04:23:57;98926.63;;;14.78;47.35
58239;BME280;44037;55.638;37.356;2023-04-25T04:26:25;98923.09;;;14.80;47.36
58239;BME280;44037;55.638;37.356;2023-04-25T04:28:54;98916.84;;;14.87;47.99
58239;BME280;44037;55.638;37.356;2023-04-25T04:31:21;98910.69;;;14.93;47.25
58239;BME280;44037;55.638;37.356;2023-04-25T04:33:49;98913.19;;;14.98;47.44
58239;BME280;44037;55.638;37.356;2023-04-25T04:36:17;98901.69;;;15.07;47.51
58239;BME280;44037;55.638;37.356;2023-04-25T04:38:45;98904.75;;;15.26;47.41
58239;BME280;44037;55.638;37.356;2023-04-25T04:41:12;98906.09;;;15.45;47.04
58239;BME280;44037;55.638;37.356;2023-04-25T04:43:40;98906.69;;;15.57;46.54
58239;BME280;44037;55.638;37.356;2023-04-25T04:46:08;98910.97;;;15.61;46.79
58239;BME280;44037;55.638;37.356;2023-04-25T04:48:38;98904.03;;;15.58;46.30
58239;BME280;44037;55.638;37.356;2023-04-25T04:51:05;98910.13;;;15.59;46.86
58239;BME280;44037;55.638;37.356;2023-04-25T04:53:33;98909.25;;;15.58;46.76
58239;BME280;44037;55.638;37.356;2023-04-25T04:56:00;98901.47;;;15.57;46.88
58239;BME280;44037;55.638;37.356;2023-04-25T04:58:27;98899.75;;;15.56;46.99
58239;BME280;44037;55.638;37.356;2023-04-25T05:00:56;98904.97;;;15.56;47.20
58239;BME280;44037;55.638;37.356;2023-04-25T05:03:25;98894.53;;;15.56;47.31
58239;BME280;44037;55.638;37.356;2023-04-25T05:05:52;98895.25;;;15.62;47.04
58239;BME280;44037;55.638;37.356;2023-04-25T05:08:19;98901.03;;;15.75;47.07
58239;BME280;44037;55.638;37.356;2023-04-25T05:10:47;98897.19;;;15.92;46.49
58239;BME280;44037;55.638;37.356;2023-04-25T05:13:14;98896.38;;;15.90;45.66
58239;BME280;44037;55.638;37.356;2023-04-25T05:15:41;98893.88;;;15.85;46.10
58239;BME280;44037;55.638;37.356;2023-04-25T05:18:08;98896.47;;;15.87;46.28
58239;BME280;44037;55.638;37.356;2023-04-25T05:20:36;98903.28;;;15.92;46.34
58239;BME280;44037;55.638;37.356;2023-04-25T05:23:04;98898.84;;;15.96;46.21
58239;BME280;44037;55.638;37.356;2023-04-25T05:25:31;98893.63;;;15.96;46.01
58239;BME280;44037;55.638;37.356;2023-04-25T05:27:58;98897.06;;;15.98;45.82
58239;BME280;44037;55.638;37.356;2023-04-25T05:30:25;98898.72;;;16.01;45.86
58239;BME280;44037;55.638;37.356;2023-04-25T05:32:52;98897.75;;;16.05;46.03
58239;BME280;44037;55.638;37.356;2023-04-25T05:35:20;98897.44;;;16.17;45.42
58239;BME280;44037;55.638;37.356;2023-04-25T05:37:48;98898.03;;;16.27;45.19
58239;BME280;44037;55.638;37.356;2023-04-25T05:40:16;98890.78;;;16.38;44.46
58239;BME280;44037;55.638;37.356;2023-04-25T05:42:43;98890.69;;;16.43;43.88
58239;BME280;44037;55.638;37.356;2023-04-25T05:45:10;98889.78;;;16.44;44.24
58239;BME280;44037;55.638;37.356;2023-04-25T05:47:37;98889.56;;;16.52;43.99
58239;BME280;44037;55.638;37.356;2023-04-25T05:50:06;98886.78;;;16.58;43.86
58239;BME280;44037;55.638;37.356;2023-04-25T05:52:34;98883.63;;;16.77;44.10
58239;BME280;44037;55.638;37.356;2023-04-25T05:55:03;98880.25;;;17.04;43.85
58239;BME280;44037;55.638;37.356;2023-04-25T05:57:31;98877.97;;;17.24;41.79
58239;BME280;44037;55.638;37.356;2023-04-25T05:59:58;98875.25;;;17.27;41.21
58239;BME280;44037;55.638;37.356;2023-04-25T06:02:25;98875.34;;;17.24;40.75
58239;BME280;44037;55.638;37.356;2023-04-25T06:04:52;98876.34;;;17.19;40.92
58239;BME280;44037;55.638;37.356;2023-04-25T06:07:19;98871.16;;;17.18;40.90
58239;BME280;44037;55.638;37.356;2023-04-25T06:09:47;98870.19;;;17.20;40.62
58239;BME280;44037;55.638;37.356;2023-04-25T06:12:15;98869.06;;;17.29;40.50
58239;BME280;44037;55.638;37.356;2023-04-25T06:14:42;98863.75;;;17.32;40.19
58239;BME280;44037;55.638;37.356;2023-04-25T06:17:10;98855.72;;;17.37;40.50
58239;BME280;44037;55.638;37.356;2023-04-25T06:19:37;98857.53;;;17.35;40.06
58239;BME280;44037;55.638;37.356;2023-04-25T06:22:04;98858.13;;;17.45;39.90
58239;BME280;44037;55.638;37.356;2023-04-25T06:24:33;98855.09;;;17.57;39.94
58239;BME280;44037;55.638;37.356;2023-04-25T06:27:00;98849.56;;;17.66;39.40
58239;BME280;44037;55.638;37.356;2023-04-25T06:29:29;98848.63;;;17.69;38.79
58239;BME280;44037;55.638;37.356;2023-04-25T06:31:56;98846.03;;;17.68;38.99
58239;BME280;44037;55.638;37.356;2023-04-25T06:34:24;98848.72;;;17.66;37.68
58239;BME280;44037;55.638;37.356;2023-04-25T06:36:51;98847.66;;;17.72;36.45
58239;BME280;44037;55.638;37.356;2023-04-25T06:39:18;98843.25;;;17.74;37.24
58239;BME280;44037;55.638;37.356;2023-04-25T06:41:47;98844.72;;;17.81;36.03
58239;BME280;44037;55.638;37.356;2023-04-25T06:44:14;98842.03;;;17.84;35.94
58239;BME280;44037;55.638;37.356;2023-04-25T06:46:43;98845.34;;;17.89;35.25
58239;BME280;44037;55.638;37.356;2023-04-25T06:49:10;98846.03;;;17.94;35.54
58239;BME280;44037;55.638;37.356;2023-04-25T06:51:37;98842.38;;;18.00;35.85
58239;BME280;44037;55.638;37.356;2023-04-25T06:54:05;98831.63;;;18.08;35.64
58239;BME280;44037;55.638;37.356;2023-04-25T06:56:33;98840.31;;;18.10;35.76
58239;BME280;44037;55.638;37.356;2023-04-25T06:59:00;98847.84;;;18.19;35.79
58239;BME280;44037;55.638;37.356;2023-04-25T07:01:27;98844.78;;;18.32;35.65
58239;BME280;44037;55.638;37.356;2023-04-25T07:03:56;98848.00;;;18.40;35.38
58239;BME280;44037;55.638;37.356;2023-04-25T07:06:23;98839.00;;;18.47;35.31
58239;BME280;44037;55.638;37.356;2023-04-25T07:08:51;98840.00;;;18.45;34.96
58239;BME280;44037;55.638;37.356;2023-04-25T07:11:18;98836.50;;;18.44;35.82
58239;BME280;44037;55.638;37.356;2023-04-25T07:13:45;98840.72;;;18.48;34.53
58239;BME280;44037;55.638;37.356;2023-04-25T07:16:12;98838.09;;;18.48;34.18
58239;BME280;44037;55.638;37.356;2023-04-25T07:18:40;98826.81;;;18.46;34.59
58239;BME280;44037;55.638;37.356;2023-04-25T07:21:08;98825.72;;;18.52;34.52
58239;BME280;44037;55.638;37.356;2023-04-25T07:23:35;98826.34;;;18.58;34.14
58239;BME280;44037;55.638;37.356;2023-04-25T07:26:03;98818.31;;;18.63;34.34
58239;BME280;44037;55.638;37.356;2023-04-25T07:28:30;98818.38;;;18.62;34.66
58239;BME280;44037;55.638;37.356;2023-04-25T07:30:57;98826.75;;;18.71;35.27
58239;BME280;44037;55.638;37.356;2023-04-25T07:33:24;98821.00;;;18.85;35.13
58239;BME280;44037;55.638;37.356;2023-04-25T07:35:52;98811.81;;;18.97;34.41
58239;BME280;44037;55.638;37.356;2023-04-25T07:38:21;98825.63;;;19.02;33.70
58239;BME280;44037;55.638;37.356;2023-04-25T07:40:48;98816.22;;;18.97;34.22
58239;BME280;44037;55.638;37.356;2023-04-25T07:43:15;98826.72;;;18.97;34.24
58239;BME280;44037;55.638;37.356;2023-04-25T07:45:43;98822.31;;;18.97;32.85
58239;BME280;44037;55.638;37.356;2023-04-25T07:48:10;98819.66;;;18.99;32.81
58239;BME280;44037;55.638;37.356;2023-04-25T07:50:37;98817.69;;;19.04;33.19
58239;BME280;44037;55.638;37.356;2023-04-25T07:53:04;98821.84;;;19.10;33.37
58239;BME280;44037;55.638;37.356;2023-04-25T07:55:33;98820.41;;;19.25;33.42
58239;BME280;44037;55.638;37.356;2023-04-25T07:58:02;98819.31;;;19.53;33.87
58239;BME280;44037;55.638;37.356;2023-04-25T08:00:29;98811.69;;;19.89;33.61
58239;BME280;44037;55.638;37.356;2023-04-25T08:02:57;98818.31;;;20.19;31.81
58239;BME280;44037;55.638;37.356;2023-04-25T08:05:24;98823.44;;;20.22;31.88
58239;BME280;44037;55.638;37.356;2023-04-25T08:07:51;98816.06;;;20.30;32.02
58239;BME280;44037;55.638;37.356;2023-04-25T08:10:18;98813.81;;;20.41;32.05
58239;BME280;44037;55.638;37.356;2023-04-25T08:12:47;98818.13;;;20.63;31.52
58239;BME280;44037;55.638;37.356;2023-04-25T08:15:14;98815.59;;;20.81;31.44
58239;BME280;44037;55.638;37.356;2023-04-25T08:17:42;98818.75;;;20.89;31.59
58239;BME280;44037;55.638;37.356;2023-04-25T08:20:10;98811.38;;;21.15;31.30
58239;BME280;44037;55.638;37.356;2023-04-25T08:22:38;98812.19;;;21.35;29.79
58239;BME280;44037;55.638;37.356;2023-04-25T08:25:05;98803.75;;;21.28;30.28
58239;BME280;44037;55.638;37.356;2023-04-25T08:27:33;98802.84;;;21.10;30.26
58239;BME280;44037;55.638;37.356;2023-04-25T08:30:02;98803.72;;;20.91;30.86
58239;BME280;44037;55.638;37.356;2023-04-25T08:32:29;98804.47;;;20.93;30.59
58239;BME280;44037;55.638;37.356;2023-04-25T08:34:57;98807.56;;;20.84;31.10
58239;BME280;44037;55.638;37.356;2023-04-25T08:37:24;98807.56;;;20.84;31.50
58239;BME280;44037;55.638;37.356;2023-04-25T08:39:51;98802.06;;;21.08;31.46
58239;BME280;44037;55.638;37.356;2023-04-25T08:42:19;98799.91;;;21.35;30.74
58239;BME280;44037;55.638;37.356;2023-04-25T08:44:49;98801.19;;;21.44;30.48
58239;BME280;44037;55.638;37.356;2023-04-25T08:47:19;98789.09;;;21.22;30.46
58239;BME280;44037;55.638;37.356;2023-04-25T08:49:49;98789.69;;;20.91;30.28
58239;BME280;44037;55.638;37.356;2023-04-25T08:52:17;98781.88;;;20.89;30.24
58239;BME280;44037;55.638;37.356;2023-04-25T08:54:48;98784.16;;;20.97;29.88
58239;BME280;44037;55.638;37.356;2023-04-25T08:57:17;98790.31;;;21.15;30.35
58239;BME280;44037;55.638;37.356;2023-04-25T08:59:45;98785.31;;;21.28;29.25
58239;BME280;44037;55.638;37.356;2023-04-25T09:02:13;98771.88;;;21.15;29.66
58239;BME280;44037;55.638;37.356;2023-04-25T09:04:44;98773.28;;;20.85;30.16
58239;BME280;44037;55.638;37.356;2023-04-25T09:07:12;98766.78;;;20.74;30.60
58239;BME280;44037;55.638;37.356;2023-04-25T09:09:41;98773.63;;;20.78;30.63
58239;BME280;44037;55.638;37.356;2023-04-25T09:12:08;98765.22;;;20.89;30.63
58239;BME280;44037;55.638;37.356;2023-04-25T09:14:36;98764.94;;;20.95;30.96
58239;BME280;44037;55.638;37.356;2023-04-25T09:17:04;98765.72;;;20.97;31.09
58239;BME280;44037;55.638;37.356;2023-04-25T09:19:35;98758.09;;;20.91;30.92
58239;BME280;44037;55.638;37.356;2023-04-25T09:22:04;98761.38;;;20.96;30.81
58239;BME280;44037;55.638;37.356;2023-04-25T09:24:33;98755.66;;;21.05;30.88
58239;BME280;44037;55.638;37.356;2023-04-25T09:27:03;98756.31;;;21.10;31.34
58239;BME280;44037;55.638;37.356;2023-04-25T09:29:31;98769.47;;;21.10;31.16
58239;BME280;44037;55.638;37.356;2023-04-25T09:32:12;98762.88;;;21.01;31.39
58239;BME280;44037;55.638;37.356;2023-04-25T09:34:40;98758.94;;;21.10;31.63
58239;BME280;44037;55.638;37.356;2023-04-25T09:37:10;98759.34;;;21.20;31.87
58239;BME280;44037;55.638;37.356;2023-04-25T09:39:38;98747.66;;;21.26;31.54
58239;BME280;44037;55.638;37.356;2023-04-25T09:42:05;98742.38;;;21.26;31.64
58239;BME280;44037;55.638;37.356;2023-04-25T09:44:32;98753.09;;;21.23;30.37
58239;BME280;44037;55.638;37.356;2023-04-25T09:47:00;98752.66;;;21.13;29.94
58239;BME280;44037;55.638;37.356;2023-04-25T09:49:28;98747.09;;;21.19;30.33
58239;BME280;44037;55.638;37.356;2023-04-25T09:51:55;98734.09;;;21.16;29.85
58239;BME280;44037;55.638;37.356;2023-04-25T09:54:25;98743.31;;;20.88;30.48
58239;BME280;44037;55.638;37.356;2023-04-25T09:56:53;98753.50;;;20.37;30.79
58239;BME280;44037;55.638;37.356;2023-04-25T09:59:21;98747.97;;;19.83;31.79
58239;BME280;44037;55.638;37.356;2023-04-25T10:01:49;98741.41;;;19.72;32.28
58239;BME280;44037;55.638;37.356;2023-04-25T10:04:20;98739.50;;;19.76;31.96
58239;BME280;44037;55.638;37.356;2023-04-25T10:06:49;98737.59;;;19.79;32.40
58239;BME280;44037;55.638;37.356;2023-04-25T10:09:19;98737.41;;;19.63;32.08
58239;BME280;44037;55.638;37.356;2023-04-25T10:11:48;98729.47;;;19.65;32.37
58239;BME280;44037;55.638;37.356;2023-04-25T10:14:18;98732.50;;;19.76;31.81
58239;BME280;44037;55.638;37.356;2023-04-25T10:16:47;98716.72;;;19.97;31.77
58239;BME280;44037;55.638;37.356;2023-04-25T10:19:15;98724.56;;;20.18;31.16
58239;BME280;44037;55.638;37.356;2023-04-25T10:21:48;98720.09;;;20.20;31.19
58239;BME280;44037;55.638;37.356;2023-04-25T10:24:17;98718.81;;;20.09;30.65
58239;BME280;44037;55.638;37.356;2023-04-25T10:26:44;98711.53;;;19.95;30.72
58239;BME280;44037;55.638;37.356;2023-04-25T10:29:21;98709.13;;;19.91;31.23
58239;BME280;44037;55.638;37.356;2023-04-25T10:31:49;98711.69;;;19.92;30.70
58239;BME280;44037;55.638;37.356;2023-04-25T10:34:17;98710.63;;;19.97;30.89
58239;BME280;44037;55.638;37.356;2023-04-25T10:36:49;98712.88;;;20.04;30.69
58239;BME280;44037;55.638;37.356;2023-04-25T10:39:22;98705.91;;;20.24;30.92
58239;BME280;44037;55.638;37.356;2023-04-25T10:41:53;98698.59;;;20.50;31.01
58239;BME280;44037;55.638;37.356;2023-04-25T10:44:22;98698.28;;;20.75;30.45
58239;BME280;44037;55.638;37.356;2023-04-25T10:46:49;98694.16;;;20.89;29.16
58239;BME280;44037;55.638;37.356;2023-04-25T10:49:30;98689.09;;;20.84;29.50
58239;BME280;44037;55.638;37.356;2023-04-25T10:52:15;98680.84;;;20.92;29.97
58239;BME280;44037;55.638;37.356;2023-04-25T10:54:45;98679.31;;;21.05;28.96
58239;BME280;44037;55.638;37.356;2023-04-25T10:57:35;98683.38;;;20.93;29.08
58239;BME280;44037;55.638;37.356;2023-04-25T11:00:09;98679.44;;;20.65;29.62
58239;BME280;44037;55.638;37.356;2023-04-25T11:02:40;98675.25;;;20.61;30.17
58239;BME280;44037;55.638;37.356;2023-04-25T11:05:09;98672.75;;;20.58;29.98
58239;BME280;44037;55.638;37.356;2023-04-25T11:07:47;98675.59;;;20.53;30.32
58239;BME280;44037;55.638;37.356;2023-04-25T11:10:16;98668.28;;;20.60;29.94
58239;BME280;44037;55.638;37.356;2023-04-25T11:12:44;98657.97;;;20.75;30.29
58239;BME280;44037;55.638;37.356;2023-04-25T11:15:13;98657.69;;;20.98;30.03
58239;BME280;44037;55.638;37.356;2023-04-25T11:17:41;98657.09;;;21.11;29.24
58239;BME280;44037;55.638;37.356;2023-04-25T11:20:09;98658.88;;;21.10;29.81
58239;BME280;44037;55.638;37.356;2023-04-25T11:22:39;98652.13;;;21.22;30.24
58239;BME280;44037;55.638;37.356;2023-04-25T11:25:09;98643.75;;;21.49;29.65
58239;BME280;44037;55.638;37.356;2023-04-25T11:27:49;98641.28;;;21.63;28.95
58239;BME280;44037;55.638;37.356;2023-04-25T11:30:19;98632.28;;;21.50;29.23
58239;BME280;44037;55.638;37.356;2023-04-25T11:32:47;98631.22;;;21.54;29.64
58239;BME280;44037;55.638;37.356;2023-04-25T11:35:14;98627.19;;;21.65;28.71
58239;BME280;44037;55.638;37.356;2023-04-25T11:37:42;98629.31;;;21.56;28.94
58239;BME280;44037;55.638;37.356;2023-04-25T11:40:10;98632.47;;;21.12;28.68
58239;BME280;44037;55.638;37.356;2023-04-25T11:42:38;98629.91;;;21.10;29.54
58239;BME280;44037;55.638;37.356;2023-04-25T11:45:06;98624.72;;;21.26;29.63
58239;BME280;44037;55.638;37.356;2023-04-25T11:47:36;98617.34;;;21.33;28.99
58239;BME280;44037;55.638;37.356;2023-04-25T11:50:05;98618.34;;;21.30;29.50
58239;BME280;44037;55.638;37.356;2023-04-25T11:52:37;98612.53;;;21.41;29.67
58239;BME280;44037;55.638;37.356;2023-04-25T11:55:06;98606.94;;;21.65;29.52
58239;BME280;44037;55.638;37.356;2023-04-25T11:57:34;98592.53;;;21.72;29.01
58239;BME280;44037;55.638;37.356;2023-04-25T12:00:10;98596.91;;;21.72;29.06
58239;BME280;44037;55.638;37.356;2023-04-25T12:02:45;98596.50;;;21.79;29.24
58239;BME280;44037;55.638;37.356;2023-04-25T12:05:13;98590.31;;;21.97;28.37
58239;BME280;44037;55.638;37.356;2023-04-25T12:07:41;98594.00;;;21.94;28.00
58239;BME280;44037;55.638;37.356;2023-04-25T12:10:10;98588.50;;;21.81;28.41
58239;BME280;44037;55.638;37.356;2023-04-25T12:12:38;98586.41;;;21.88;28.45
58239;BME280;44037;55.638;37.356;2023-04-25T12:15:12;98588.31;;;22.02;27.78
58239;BME280;44037;55.638;37.356;2023-04-25T12:17:45;98577.81;;;21.84;27.68
58239;BME280;44037;55.638;37.356;2023-04-25T12:20:14;98571.34;;;21.74;28.19
58239;BME280;44037;55.638;37.356;2023-04-25T12:22:42;98577.22;;;21.79;28.25
58239;BME280;44037;55.638;37.356;2023-04-25T12:25:13;98570.25;;;21.78;27.61
58239;BME280;44037;55.638;37.356;2023-04-25T12:27:40;98560.38;;;21.66;27.67
58239;BME280;44037;55.638;37.356;2023-04-25T12:30:09;98565.97;;;21.59;28.77
58239;BME280;44037;55.638;37.356;2023-04-25T12:32:37;98564.38;;;21.73;28.88
58239;BME280;44037;55.638;37.356;2023-04-25T12:35:07;98557.13;;;21.76;28.56
58239;BME280;44037;55.638;37.356;2023-04-25T12:37:34;98552.28;;;21.69;28.40
58239;BME280;44037;55.638;37.356;2023-04-25T12:40:01;98548.66;;;21.71;28.98
58239;BME280;44037;55.638;37.356;2023-04-25T12:42:30;98549.84;;;21.82;27.84
58239;BME280;44037;55.638;37.356;2023-04-25T12:44:57;98539.19;;;21.67;28.46
58239;BME280;44037;55.638;37.356;2023-04-25T12:47:25;98541.63;;;21.54;28.32
58239;BME280;44037;55.638;37.356;2023-04-25T12:49:52;98527.47;;;21.55;28.89
58239;BME280;44037;55.638;37.356;2023-04-25T12:52:21;98526.94;;;21.66;28.99
58239;BME280;44037;55.638;37.356;2023-04-25T12:54:48;98527.28;;;21.60;28.51